createdAt,value
2022-11-24T00:00:33.161Z,954.73
2022-11-24T00:05:34.427Z,954.83
2022-11-24T00:10:36.285Z,954.86
2022-11-24T00:15:37.827Z,954.92
2022-11-24T00:20:39.927Z,954.97
2022-11-24T00:25:41.946Z,955
2022-11-24T00:30:44.310Z,955.05
2022-11-24T00:35:45.775Z,955.11
2022-11-24T00:40:47.241Z,955.27
2022-11-24T00:45:48.983Z,955.32
2022-11-24T00:50:50.470Z,955.44
2022-11-24T00:55:52.072Z,955.57
2022-11-24T01:00:54.133Z,955.7
2022-11-24T01:15:58.592Z,956.01
2022-11-24T01:26:01.354Z,956.02
2022-11-24T01:36:04.721Z,956.13
2022-11-24T01:46:07.964Z,956.31
2022-11-24T02:11:16.605Z,956.65
2022-11-24T02:16:18.484Z,956.77
2022-11-24T02:21:20.047Z,956.8
2022-11-24T02:26:21.477Z,956.82
2022-11-24T02:31:23.679Z,956.85
2022-11-24T02:36:25.217Z,956.91
2022-11-24T02:41:27.067Z,956.89
2022-11-24T02:46:28.629Z,956.99
2022-11-24T02:51:29.955Z,956.99
2022-11-24T02:56:32.034Z,957.03
2022-11-24T03:01:34.265Z,957.1
2022-11-24T03:06:35.616Z,957.15
2022-11-24T03:11:37.123Z,957.21
2022-11-24T03:16:39.206Z,957.27
2022-11-24T03:21:40.832Z,957.34
2022-11-24T03:26:42.671Z,957.39
2022-11-24T03:31:44.189Z,957.41
2022-11-24T03:36:46.167Z,957.42
2022-11-24T03:41:48.359Z,957.44
2022-11-24T03:46:50.063Z,957.62
2022-11-24T03:51:51.438Z,957.68
2022-11-24T03:56:53.222Z,957.74
2022-11-24T04:01:54.577Z,957.76
2022-11-24T04:06:56.498Z,957.79
2022-11-24T04:11:58.255Z,957.8
2022-11-24T04:16:59.978Z,957.8
2022-11-24T04:22:01.693Z,957.85
2022-11-24T04:27:03.133Z,957.78
2022-11-24T04:32:04.855Z,957.86
2022-11-24T04:37:06.446Z,957.92
2022-11-24T04:42:08.455Z,957.95
2022-11-24T04:47:09.907Z,958
2022-11-24T04:52:11.457Z,957.96
2022-11-24T04:57:12.849Z,958
2022-11-24T05:02:14.535Z,958.1
2022-11-24T05:07:18.599Z,958.14
2022-11-24T05:12:17.645Z,958.22
2022-11-24T05:17:19.420Z,958.27
2022-11-24T05:22:21.234Z,958.31
2022-11-24T05:27:23.368Z,958.47
2022-11-24T05:32:25.187Z,958.5
2022-11-24T05:37:26.573Z,958.63
2022-11-24T05:42:28.409Z,958.63
2022-11-24T05:47:30.499Z,958.58
2022-11-24T05:52:31.693Z,958.64
2022-11-24T05:57:33.851Z,958.7
2022-11-24T06:02:35.964Z,958.8
2022-11-24T06:07:37.169Z,958.85
2022-11-24T06:12:38.497Z,958.94
2022-11-24T06:17:39.935Z,959.02
2022-11-24T06:22:41.496Z,959.07
2022-11-24T06:27:43.524Z,959.11
2022-11-24T06:32:49.277Z,959.09
2022-11-24T06:37:47.204Z,959.13
2022-11-24T06:42:49.183Z,959.22
2022-11-24T06:47:51.434Z,959.23
2022-11-24T06:52:53.354Z,959.26
2022-11-24T06:57:55.019Z,959.25
2022-11-24T07:02:56.815Z,959.24
2022-11-24T07:07:58.565Z,959.23
2022-11-24T07:12:59.811Z,959.27
2022-11-24T07:18:01.396Z,959.33
2022-11-24T07:23:03.544Z,959.33
2022-11-24T07:28:05.075Z,959.4
2022-11-24T07:33:07.352Z,959.45
2022-11-24T07:38:08.740Z,959.42
2022-11-24T07:43:13.475Z,959.37
2022-11-24T07:48:12.233Z,959.42
2022-11-24T07:53:13.548Z,959.45
2022-11-24T07:58:15.270Z,959.48
2022-11-24T08:03:16.593Z,959.44
2022-11-24T08:08:18.558Z,959.44
2022-11-24T08:13:20.371Z,959.43
2022-11-24T08:18:22.099Z,959.39
2022-11-24T08:23:23.950Z,959.39
2022-11-24T08:28:25.420Z,959.47
2022-11-24T08:33:27.626Z,959.55
2022-11-24T08:38:28.804Z,959.59
2022-11-24T08:43:30.559Z,959.61
2022-11-24T08:48:32.314Z,959.67
2022-11-24T08:53:33.859Z,959.62
2022-11-24T08:58:35.841Z,959.54
2022-11-24T09:03:37.381Z,959.53
2022-11-24T09:08:39.200Z,959.48
2022-11-24T09:13:40.801Z,959.46
2022-11-24T09:18:42.968Z,959.53
2022-11-24T09:23:44.279Z,959.57
2022-11-24T09:28:46.144Z,959.63
2022-11-24T09:33:48.287Z,959.61
2022-11-24T09:38:49.660Z,959.54
2022-11-24T09:43:51.774Z,959.63
2022-11-24T09:48:53.344Z,959.62
2022-11-24T09:53:55.228Z,959.71
2022-11-24T09:58:56.833Z,959.75
2022-11-24T10:04:02.728Z,959.78
2022-11-24T10:09:00.287Z,959.8
2022-11-24T10:14:01.897Z,959.78
2022-11-24T10:19:03.847Z,959.87
2022-11-24T10:24:05.321Z,959.92
2022-11-24T10:29:06.833Z,960.1
2022-11-24T10:34:08.408Z,960.19
2022-11-24T10:39:09.901Z,960.25
2022-11-24T10:44:11.095Z,960.27
2022-11-24T10:49:12.889Z,960.33
2022-11-24T10:54:14.550Z,960.36
2022-11-24T10:59:16.219Z,960.28
2022-11-24T11:04:17.514Z,960.33
2022-11-24T11:09:18.783Z,960.34
2022-11-24T11:14:20.637Z,960.32
2022-11-24T11:19:47.145Z,960.33
2022-11-24T11:24:23.967Z,960.29
2022-11-24T11:34:30.249Z,960.34
2022-11-24T11:39:29.530Z,960.36
2022-11-24T11:44:31.316Z,960.42
2022-11-24T11:49:32.891Z,960.38
2022-11-24T11:54:35.233Z,960.42
2022-11-24T11:59:36.275Z,960.47
2022-11-24T12:04:37.612Z,960.52
2022-11-24T12:09:39.167Z,960.55
2022-11-24T12:14:40.857Z,960.6
2022-11-24T12:19:48.436Z,960.6
2022-11-24T12:24:49.846Z,960.65
2022-11-24T12:29:51.848Z,960.7
2022-11-24T12:34:53.585Z,960.75
2022-11-24T12:39:54.668Z,960.75
2022-11-24T12:44:56.213Z,960.76
2022-11-24T12:49:58.039Z,960.81
2022-11-24T12:54:59.778Z,960.77
2022-11-24T13:00:01.942Z,960.78
2022-11-24T13:05:03.639Z,960.84
2022-11-24T13:10:05.125Z,960.92
2022-11-24T13:15:06.654Z,960.95
2022-11-24T13:20:08.079Z,960.95
2022-11-24T13:25:10.153Z,960.95
2022-11-24T13:30:11.907Z,960.93
2022-11-24T13:35:14.103Z,960.93
2022-11-24T13:40:16.017Z,960.92
2022-11-24T13:45:17.580Z,960.98
2022-11-24T13:50:19.154Z,961.04
2022-11-24T13:55:20.549Z,961.1
2022-11-24T14:00:22.252Z,961.22
2022-11-24T14:05:24.490Z,961.33
2022-11-24T14:10:26.317Z,961.33
2022-11-24T14:15:28.057Z,961.33
2022-11-24T14:20:30.220Z,961.28
2022-11-24T14:25:32.132Z,961.27
2022-11-24T14:30:33.407Z,961.3
2022-11-24T14:35:35.242Z,961.4
2022-11-24T14:40:36.877Z,961.52
2022-11-24T14:45:38.796Z,961.54
2022-11-24T14:50:40.133Z,961.6
2022-11-24T14:55:42.099Z,961.65
2022-11-24T15:00:43.953Z,961.66
2022-11-24T15:05:45.842Z,961.7
2022-11-24T15:10:47.339Z,961.67
2022-11-24T15:15:48.735Z,961.69
2022-11-24T15:20:50.252Z,961.75
2022-11-24T15:25:51.545Z,961.79
2022-11-24T15:30:52.969Z,961.78
2022-11-24T15:45:57.880Z,961.97
2022-11-24T15:56:01.012Z,962.02
2022-11-24T16:26:10.256Z,962.4
2022-11-24T16:41:15.137Z,962.24
2022-11-24T16:46:16.663Z,962.37
2022-11-24T17:06:23.786Z,962.41
2022-11-24T17:11:25.127Z,962.4
2022-11-24T17:16:26.965Z,962.44
2022-11-24T17:21:28.260Z,962.38
2022-11-24T17:26:30.150Z,962.42
2022-11-24T17:31:32.117Z,962.51
2022-11-24T17:36:33.815Z,962.5
2022-11-24T17:41:35.039Z,962.52
2022-11-24T17:46:37.045Z,962.53
2022-11-24T17:51:39.214Z,962.61
2022-11-24T17:56:41.055Z,962.61
2022-11-24T18:01:42.672Z,962.64
2022-11-24T18:06:43.869Z,962.65
2022-11-24T18:11:45.215Z,962.61
2022-11-24T18:16:47.015Z,962.63
2022-11-24T18:21:48.647Z,962.64
2022-11-24T18:26:49.962Z,962.59
2022-11-24T18:31:51.416Z,962.62
2022-11-24T18:36:53.102Z,962.66
2022-11-24T18:41:54.787Z,962.69
2022-11-24T18:46:56.800Z,962.65
2022-11-24T18:51:58.689Z,962.64
2022-11-24T18:57:03.226Z,962.68
2022-11-24T19:02:01.555Z,962.63
2022-11-24T19:07:02.833Z,962.64
2022-11-24T19:12:04.815Z,962.64
2022-11-24T19:17:06.679Z,962.63
2022-11-24T19:22:08.638Z,962.66
2022-11-24T19:27:10.607Z,962.62
2022-11-24T19:32:12.346Z,962.61
2022-11-24T19:37:14.193Z,962.59
2022-11-24T19:42:15.332Z,962.63
2022-11-24T19:47:17.037Z,962.67
2022-11-24T19:52:18.773Z,962.66
2022-11-24T19:57:20.200Z,962.74
2022-11-24T20:02:21.633Z,962.75
2022-11-24T20:07:23.505Z,962.73
2022-11-24T20:12:25.472Z,962.74
2022-11-24T20:17:27.316Z,962.78
2022-11-24T20:22:28.507Z,962.82
2022-11-24T20:27:29.803Z,962.79
2022-11-24T20:32:31.713Z,962.81
2022-11-24T20:37:33.512Z,962.77
2022-11-24T20:42:34.866Z,962.74
2022-11-24T20:47:36.709Z,962.76
2022-11-24T20:52:38.861Z,962.8
2022-11-24T20:57:40.650Z,962.72
2022-11-24T21:02:42.701Z,962.67
2022-11-24T21:07:43.945Z,962.66
2022-11-24T21:12:45.490Z,962.63
2022-11-24T21:17:47.175Z,962.69
2022-11-24T21:22:49.335Z,962.67
2022-11-24T21:27:50.782Z,962.63
2022-11-24T21:32:52.680Z,962.62
2022-11-24T21:37:54.666Z,962.58
2022-11-24T21:42:56.022Z,962.56
2022-11-24T21:47:57.738Z,962.58
2022-11-24T21:53:03.276Z,962.56
2022-11-24T21:58:01.103Z,962.58
2022-11-24T22:03:02.282Z,962.63
2022-11-24T22:08:04.487Z,962.62
2022-11-24T22:13:06.133Z,962.67
2022-11-24T22:18:07.361Z,962.68
2022-11-24T22:23:09.187Z,962.81
2022-11-24T22:28:10.800Z,962.82
2022-11-24T22:33:12.553Z,962.71
2022-11-24T22:38:14.693Z,962.66
2022-11-24T22:43:20.189Z,962.59
2022-11-24T22:48:17.933Z,962.6
2022-11-24T22:53:20.160Z,962.66
2022-11-24T22:58:21.878Z,962.65
2022-11-24T23:13:27.254Z,962.7
2022-11-24T23:18:29.224Z,962.74
2022-11-24T23:23:31.120Z,962.74
2022-11-24T23:28:32.656Z,962.71
2022-11-24T23:33:34.487Z,962.65
2022-11-24T23:38:36.188Z,962.62
2022-11-24T23:43:38.012Z,962.57
2022-11-24T23:48:40.127Z,962.54
2022-11-24T23:53:42.275Z,962.54
2022-11-24T23:58:44.281Z,962.55
